Lummen, Belgium
Current Conditions -  °F | °C
As of 6:25 PM on Thursday 27 Nov 2014 (Local Time) from EBDT Reporting Station
Broken Clouds Broken Clouds  
Wind Chill: 46°   Ceiling: 800
Heat Index: 46°   Visibility: 2.5mi
Dew Point: 46°   Wind: 3mph
Humidity: 100%   Direction: 90°E
Pressure: 29.68"   Gusts: NA
Location:  50.99°N, 5.19°E
Report Text: EBDT 271725Z 09003KT 4000 SCT004 BKN008 08/08 Q1005 YLO YLO BECMG GRN
Loading
Personal Weather Stations






























Interactive Weather Map New forecast layout! Learn more

10-Day Weather Forecast

Advertisements
Track Severe Weather on mobile